createdAt,value
2022-11-05T00:00:42.394Z,91712.13
2022-11-05T00:03:28.173Z,91712.13
2022-11-05T00:06:14.415Z,91712.13
2022-11-05T00:09:00.649Z,91969.47
2022-11-05T00:11:42.947Z,92226.81
2022-11-05T00:14:29.141Z,92484.19
2022-11-05T00:16:59.141Z,92741.59
2022-11-05T00:19:27.619Z,92741.59
2022-11-05T00:22:12.989Z,92741.59
2022-11-05T00:24:59.208Z,92484.19
2022-11-05T00:27:30.215Z,92484.19
2022-11-05T00:29:58.805Z,92484.19
2022-11-05T00:32:29.946Z,92226.81
2022-11-05T00:34:58.281Z,91969.47
2022-11-05T00:37:28.786Z,92226.81
2022-11-05T00:39:57.471Z,91969.47
2022-11-05T00:42:43.633Z,91712.13
2022-11-05T00:45:12.339Z,90940.22
2022-11-05T00:48:00.632Z,90940.22
2022-11-05T00:50:29.558Z,91454.81
2022-11-05T00:53:00.646Z,91197.50
2022-11-05T00:55:38.279Z,91454.81
2022-11-05T00:58:11.686Z,91197.50
2022-11-05T01:00:41.901Z,91712.13
2022-11-05T01:03:14.208Z,91197.50
2022-11-05T01:05:46.537Z,90425.72
2022-11-05T01:08:16.615Z,90168.50
2022-11-05T01:10:47.821Z,90425.72
2022-11-05T01:13:20.432Z,90425.72
2022-11-05T01:15:51.032Z,90168.50
2022-11-05T01:18:22.784Z,89396.97
2022-11-05T01:20:52.321Z,88625.56
2022-11-05T01:23:21.491Z,88882.69
2022-11-05T01:25:50.102Z,88882.69
2022-11-05T01:28:18.713Z,88111.41
2022-11-05T01:30:47.792Z,87597.34
2022-11-05T01:33:16.369Z,86826.34
2022-11-05T01:35:46.654Z,86312.47
2022-11-05T01:38:15.131Z,85541.78
2022-11-05T01:40:44.715Z,84514.44
2022-11-05T01:43:17.771Z,82460.72
2022-11-05T01:45:49.027Z,80408.22
2022-11-05T01:48:19.491Z,81690.91
2022-11-05T01:50:54.818Z,78100.63
2022-11-05T01:53:29.864Z,74770.16
2022-11-05T01:56:03.033Z,71442.94
2022-11-05T01:58:38.325Z,78869.66
2022-11-05T02:01:07.277Z,81434.31
2022-11-05T02:03:36.316Z,81177.78
2022-11-05T02:06:09.451Z,82204.09
2022-11-05T02:08:50.277Z,81434.31
2022-11-05T02:11:21.262Z,84000.91
2022-11-05T02:13:50.631Z,83487.44
2022-11-05T02:16:29.823Z,82204.09
2022-11-05T02:19:04.922Z,81947.50
2022-11-05T02:21:56.393Z,80921.25
2022-11-05T02:25:00.241Z,80408.22
2022-11-05T02:27:46.595Z,79638.84
2022-11-05T02:30:32.429Z,79382.44
2022-11-05T02:33:29.088Z,78869.66
2022-11-05T02:36:19.704Z,79382.44
2022-11-05T02:39:00.589Z,79638.84
2022-11-05T02:41:37.220Z,78356.94
2022-11-05T02:44:20.668Z,78869.66
2022-11-05T02:46:58.767Z,79126.03
2022-11-05T02:49:38.947Z,79382.44
2022-11-05T02:52:13.444Z,79382.44
2022-11-05T02:54:46.304Z,78869.66
2022-11-05T02:57:14.714Z,77331.78
2022-11-05T02:59:43.259Z,74770.16
2022-11-05T03:02:14.623Z,76819.28
2022-11-05T03:04:43.540Z,78100.63
2022-11-05T03:07:36.724Z,79895.28
2022-11-05T03:10:33.622Z,79895.28
2022-11-05T03:13:09.903Z,80664.72
2022-11-05T03:15:54.477Z,80664.72
2022-11-05T03:18:34.646Z,81690.91
2022-11-05T03:21:08.080Z,81177.78
2022-11-05T03:23:42.927Z,80921.25
2022-11-05T03:26:17.631Z,81177.78
2022-11-05T03:28:50.289Z,81177.78
2022-11-05T03:31:20.374Z,81947.50
2022-11-05T03:33:53.216Z,82717.38
2022-11-05T03:36:26.530Z,82717.38
2022-11-05T03:38:58.190Z,82717.38
2022-11-05T03:41:27.625Z,82974.03
2022-11-05T03:44:03.232Z,81947.50
2022-11-05T03:46:35.621Z,81690.91
2022-11-05T03:49:09.546Z,82460.72
2022-11-05T03:51:47.636Z,82974.03
2022-11-05T03:54:16.421Z,83487.44
2022-11-05T03:56:50.311Z,83744.16
2022-11-05T03:59:20.899Z,85028.06
2022-11-05T04:01:49.627Z,84514.44
2022-11-05T04:04:19.404Z,85028.06
2022-11-05T04:07:05.322Z,85284.91
2022-11-05T04:09:51.419Z,85798.66
2022-11-05T04:12:37.363Z,85798.66
2022-11-05T04:15:06.549Z,86312.47
2022-11-05T04:17:33.885Z,85798.66
2022-11-05T04:20:21.390Z,86055.56
2022-11-05T04:23:08.003Z,86569.41
2022-11-05T04:25:36.586Z,87083.34
2022-11-05T04:28:05.067Z,87083.34
2022-11-05T04:30:32.684Z,86055.56
2022-11-05T04:33:03.993Z,85798.66
2022-11-05T04:35:35.643Z,86312.47
2022-11-05T04:38:05.751Z,86569.41
2022-11-05T04:40:34.760Z,86826.34
2022-11-05T04:43:03.933Z,87083.34
2022-11-05T04:45:34.455Z,87340.31
2022-11-05T04:48:03.315Z,86826.34
2022-11-05T04:50:33.952Z,87340.31
2022-11-05T04:53:02.492Z,86826.34
2022-11-05T04:55:31.390Z,87597.34
2022-11-05T04:58:00.794Z,87083.34
2022-11-05T05:00:29.672Z,87597.34
2022-11-05T05:02:58.602Z,87854.38
2022-11-05T05:05:27.281Z,88111.41
2022-11-05T05:08:02.125Z,88368.50
2022-11-05T05:10:31.361Z,89139.81
2022-11-05T05:12:59.962Z,89396.97
2022-11-05T05:15:28.837Z,88882.69
2022-11-05T05:17:57.566Z,89396.97
2022-11-05T05:20:43.824Z,89654.13
2022-11-05T05:23:13.875Z,90168.50
2022-11-05T05:25:42.631Z,90168.50
2022-11-05T05:28:11.251Z,89911.31
2022-11-05T05:30:39.952Z,90682.97
2022-11-05T05:33:09.905Z,90682.97
2022-11-05T05:35:38.567Z,91197.50
2022-11-05T05:38:07.009Z,91454.81
2022-11-05T05:40:37.066Z,90682.97
2022-11-05T05:43:06.081Z,91197.50
2022-11-05T05:45:36.590Z,90940.22
2022-11-05T05:48:05.578Z,91197.50
2022-11-05T05:50:34.373Z,90682.97
2022-11-05T05:53:09.335Z,90682.97
2022-11-05T05:55:39.523Z,90168.50
2022-11-05T05:58:08.286Z,90425.72
2022-11-05T06:00:37.314Z,90425.72
2022-11-05T06:03:06.504Z,91454.81
2022-11-05T06:05:35.004Z,91969.47
2022-11-05T06:08:03.532Z,91712.13
2022-11-05T06:10:32.719Z,91712.13
2022-11-05T06:13:03.358Z,91969.47
2022-11-05T06:15:35.856Z,91969.47
2022-11-05T06:18:04.795Z,91712.13
2022-11-05T06:20:33.543Z,91197.50
2022-11-05T06:23:02.021Z,91197.50
2022-11-05T06:25:30.710Z,91712.13
2022-11-05T06:28:00.045Z,91712.13
2022-11-05T06:30:30.641Z,91712.13
2022-11-05T06:33:13.007Z,91712.13
2022-11-05T06:35:41.703Z,92484.19
2022-11-05T06:38:10.207Z,92484.19
2022-11-05T06:40:38.596Z,92226.81
2022-11-05T06:43:07.176Z,91969.47
2022-11-05T06:45:37.041Z,91712.13
2022-11-05T06:48:06.467Z,91454.81
2022-11-05T06:50:35.167Z,91969.47
2022-11-05T06:53:05.651Z,91969.47
2022-11-05T06:55:34.211Z,92484.19
2022-11-05T06:58:02.702Z,92741.59
2022-11-05T07:00:32.869Z,92999.00
2022-11-05T07:03:07.265Z,93256.44
2022-11-05T07:05:38.845Z,93771.38
2022-11-05T07:08:07.507Z,93513.91
2022-11-05T07:10:36.136Z,93513.91
2022-11-05T07:13:08.074Z,93771.38
2022-11-05T07:15:39.960Z,93513.91
2022-11-05T07:18:10.085Z,93256.44
2022-11-05T07:20:38.784Z,93513.91
2022-11-05T07:23:11.447Z,94543.91
2022-11-05T07:25:40.979Z,94801.44
2022-11-05T07:28:10.155Z,95059.00
2022-11-05T07:30:39.290Z,95316.59
2022-11-05T07:33:09.559Z,95316.59
2022-11-05T07:35:38.399Z,94801.44
2022-11-05T07:38:06.952Z,95059.00
2022-11-05T07:40:36.045Z,94543.91
2022-11-05T07:43:04.591Z,94543.91
2022-11-05T07:45:33.491Z,95316.59
2022-11-05T07:48:03.822Z,95574.19
2022-11-05T07:50:36.502Z,95574.19
2022-11-05T07:53:07.178Z,95831.81
2022-11-05T07:55:35.989Z,95831.81
2022-11-05T07:58:05.250Z,96347.13
2022-11-05T08:00:34.910Z,96089.47
2022-11-05T08:03:08.093Z,96862.50
2022-11-05T08:05:40.537Z,97120.22
2022-11-05T08:08:10.764Z,97120.22
2022-11-05T08:10:40.156Z,96862.50
2022-11-05T08:13:10.265Z,97377.97
2022-11-05T08:15:39.379Z,96862.50
2022-11-05T08:18:09.568Z,97120.22
2022-11-05T08:20:40.691Z,97120.22
2022-11-05T08:23:09.722Z,97635.72
2022-11-05T08:25:40.241Z,97377.97
2022-11-05T08:28:11.906Z,97120.22
2022-11-05T08:30:40.531Z,97635.72
2022-11-05T08:33:12.085Z,97377.97
2022-11-05T08:35:43.172Z,97377.97
2022-11-05T08:38:14.436Z,97377.97
2022-11-05T08:40:44.441Z,97377.97
2022-11-05T08:43:15.146Z,97377.97
2022-11-05T08:45:44.077Z,96862.50
2022-11-05T08:48:15.179Z,97120.22
2022-11-05T08:50:46.428Z,96347.13
2022-11-05T08:53:17.635Z,96347.13
2022-11-05T08:55:47.941Z,96604.81
2022-11-05T08:58:17.510Z,95831.81
2022-11-05T09:00:48.989Z,96089.47
2022-11-05T09:03:18.286Z,95316.59
2022-11-05T09:05:48.347Z,94286.38
2022-11-05T09:08:19.385Z,93513.91
2022-11-05T09:10:50.034Z,92741.59
2022-11-05T09:13:20.462Z,90682.97
2022-11-05T09:15:50.291Z,90168.50
2022-11-05T09:18:21.074Z,89396.97
2022-11-05T09:20:51.164Z,87083.34
2022-11-05T09:23:19.638Z,86569.41
2022-11-05T09:25:48.384Z,87340.31
2022-11-05T09:28:20.628Z,85798.66
2022-11-05T09:30:50.834Z,85284.91
2022-11-05T09:33:21.225Z,85798.66
2022-11-05T09:35:52.271Z,84000.91
2022-11-05T09:38:20.821Z,85541.78
2022-11-05T09:40:58.450Z,82974.03
2022-11-05T09:43:32.302Z,81690.91
2022-11-05T09:46:09.370Z,81690.91
2022-11-05T09:48:40.955Z,80664.72
2022-11-05T09:51:20.812Z,77844.31
2022-11-05T09:53:53.663Z,75026.22
2022-11-05T09:56:25.918Z,74002.03
2022-11-05T09:58:59.819Z,72466.34
2022-11-05T10:01:32.726Z,67923.25
2022-11-05T10:04:06.586Z,68009.09
2022-11-05T10:06:49.996Z,67460.09
2022-11-05T10:09:23.833Z,66240.63
2022-11-05T10:11:58.930Z,66490.06
2022-11-05T10:14:31.255Z,64337.41
2022-11-05T10:17:02.780Z,63848.81
2022-11-05T10:19:39.737Z,62078.50
2022-11-05T10:22:14.309Z,61392.94
2022-11-05T10:24:46.444Z,60484.38
2022-11-05T10:27:19.720Z,61221.56
2022-11-05T10:29:49.642Z,60022.25
2022-11-05T10:32:28.713Z,58825.31
2022-11-05T10:35:00.165Z,58897.00
2022-11-05T10:37:33.483Z,58345.47
2022-11-05T10:40:03.532Z,57736.31
2022-11-05T10:42:48.148Z,56989.94
2022-11-05T10:45:26.788Z,57063.59
2022-11-05T10:48:15.177Z,56552.16
2022-11-05T10:50:45.699Z,56665.56
2022-11-05T10:53:17.550Z,56625.78
2022-11-05T10:55:48.837Z,56458.63
2022-11-05T10:58:23.015Z,56430.78
2022-11-05T11:01:11.588Z,56012.94
2022-11-05T11:03:44.930Z,56124.34
2022-11-05T11:06:26.286Z,55611.09
2022-11-05T11:08:58.953Z,55845.81
2022-11-05T11:11:30.841Z,56056.72
2022-11-05T11:14:05.938Z,56773.03
2022-11-05T11:16:39.211Z,56578.03
2022-11-05T11:19:28.759Z,55895.56
2022-11-05T11:22:14.986Z,55921.44
2022-11-05T11:24:47.051Z,56267.63
2022-11-05T11:27:18.621Z,55881.63
2022-11-05T11:29:52.192Z,55975.16
2022-11-05T11:32:22.719Z,56052.72
2022-11-05T11:34:54.792Z,55817.97
2022-11-05T11:37:26.155Z,55543.44
2022-11-05T11:39:58.246Z,55599.16
2022-11-05T11:42:32.447Z,55481.78
2022-11-05T11:45:05.533Z,55364.41
2022-11-05T11:47:34.910Z,55386.28
2022-11-05T11:50:04.178Z,55286.84
2022-11-05T11:52:36.421Z,55089.94
2022-11-05T11:55:23.633Z,54984.50
2022-11-05T11:57:54.341Z,55030.25
2022-11-05T12:00:27.061Z,55026.28
2022-11-05T12:03:11.878Z,54879.09
2022-11-05T12:05:48.781Z,54801.53
2022-11-05T12:08:45.300Z,54785.63
2022-11-05T12:11:23.832Z,54688.16
2022-11-05T12:14:02.405Z,54648.41
2022-11-05T12:16:50.694Z,54652.38
2022-11-05T12:19:29.592Z,54596.69
2022-11-05T12:22:07.066Z,54574.81
2022-11-05T12:24:56.763Z,54521.13
2022-11-05T12:27:41.810Z,54473.41
2022-11-05T12:30:15.284Z,54513.16
2022-11-05T12:33:03.455Z,54409.75
2022-11-05T12:35:50.908Z,54379.94
2022-11-05T12:38:38.039Z,54393.84
2022-11-05T12:41:15.946Z,54342.16
2022-11-05T12:43:59.740Z,54304.38
2022-11-05T12:46:36.500Z,54268.56
2022-11-05T12:49:35.402Z,54222.84
2022-11-05T12:52:21.222Z,54224.81
2022-11-05T12:55:01.985Z,54252.66
2022-11-05T12:57:33.230Z,54210.91
2022-11-05T13:00:09.148Z,54183.06
2022-11-05T13:02:43.124Z,54151.25
2022-11-05T13:05:18.086Z,54163.19
2022-11-05T13:07:56.502Z,54135.34
2022-11-05T13:10:31.171Z,54119.44
2022-11-05T13:13:13.613Z,54109.50
2022-11-05T13:15:52.220Z,54111.47
2022-11-05T13:18:25.011Z,54095.56
2022-11-05T13:20:57.635Z,54075.69
2022-11-05T13:23:33.632Z,54093.59
2022-11-05T13:26:08.456Z,54073.69
2022-11-05T13:28:47.885Z,54107.50
2022-11-05T13:31:21.853Z,54039.91
2022-11-05T13:33:54.075Z,54073.69
2022-11-05T13:36:44.028Z,54037.91
2022-11-05T13:39:21.466Z,54035.91
2022-11-05T13:42:16.897Z,54039.91
2022-11-05T13:45:01.251Z,54031.94
2022-11-05T13:47:52.481Z,54055.81
2022-11-05T13:50:55.564Z,53988.19
2022-11-05T13:53:49.561Z,54031.94
2022-11-05T13:56:33.180Z,54037.91
2022-11-05T13:59:38.533Z,54041.88
2022-11-05T14:02:16.667Z,54049.84
2022-11-05T14:04:50.546Z,54035.91
2022-11-05T14:07:23.393Z,54045.88
2022-11-05T14:09:57.871Z,54061.78
2022-11-05T14:12:33.669Z,54051.81
2022-11-05T14:15:10.305Z,54051.81
2022-11-05T14:17:57.812Z,54024.00
2022-11-05T14:20:58.387Z,54022.00
2022-11-05T14:23:40.174Z,54025.97
2022-11-05T14:26:18.037Z,54035.91
2022-11-05T14:29:23.370Z,54043.88
2022-11-05T14:32:11.269Z,54053.81
2022-11-05T14:34:49.370Z,54057.78
2022-11-05T14:37:31.448Z,54071.72
2022-11-05T14:40:19.295Z,54047.84
2022-11-05T14:42:52.666Z,54053.81
2022-11-05T14:45:30.766Z,54063.75
2022-11-05T14:48:01.340Z,54079.66
2022-11-05T14:50:37.129Z,54067.75
2022-11-05T14:53:25.321Z,54083.66
2022-11-05T14:56:01.735Z,54091.59
2022-11-05T14:58:36.072Z,54077.69
2022-11-05T15:01:07.363Z,54083.66
2022-11-05T15:04:02.454Z,54079.66
2022-11-05T15:06:34.283Z,54055.81
2022-11-05T15:09:17.165Z,54065.75
2022-11-05T15:11:53.941Z,54067.75
2022-11-05T15:14:28.341Z,54073.69
2022-11-05T15:16:58.839Z,54077.69
2022-11-05T15:19:32.017Z,54119.44
2022-11-05T15:22:03.149Z,54087.63
2022-11-05T15:24:34.708Z,54071.72
2022-11-05T15:27:10.233Z,54089.59
2022-11-05T15:29:39.044Z,54077.69
2022-11-05T15:32:17.252Z,54101.53
2022-11-05T15:34:52.979Z,54103.53
2022-11-05T15:37:24.027Z,54083.66
2022-11-05T15:39:55.153Z,54095.56
2022-11-05T15:42:24.836Z,54107.50
2022-11-05T15:44:55.439Z,54123.41
2022-11-05T15:47:25.539Z,54117.44
2022-11-05T15:49:56.384Z,54153.25
2022-11-05T15:52:26.550Z,54145.28
2022-11-05T15:55:20.780Z,54165.16
2022-11-05T15:57:51.591Z,54208.91
2022-11-05T16:00:22.549Z,54204.94
2022-11-05T16:02:55.789Z,54187.03
2022-11-05T16:05:26.678Z,54224.81
2022-11-05T16:07:55.469Z,54200.97
2022-11-05T16:10:30.216Z,54218.84
2022-11-05T16:12:58.827Z,54230.78
2022-11-05T16:15:32.833Z,54264.59
2022-11-05T16:18:01.630Z,54308.34
2022-11-05T16:20:32.270Z,54308.34
2022-11-05T16:23:02.316Z,54312.31
2022-11-05T16:25:40.025Z,54328.22
2022-11-05T16:28:21.991Z,54318.28
2022-11-05T16:30:57.699Z,54320.28
2022-11-05T16:33:28.313Z,54334.19
2022-11-05T16:35:56.664Z,54377.94
2022-11-05T16:38:25.394Z,54368.00
2022-11-05T16:40:55.105Z,54379.94
2022-11-05T16:43:26.045Z,54401.81
2022-11-05T16:45:55.438Z,54419.69
2022-11-05T16:48:23.908Z,54413.72
2022-11-05T16:50:52.594Z,54441.56
2022-11-05T16:53:21.285Z,54425.66
2022-11-05T16:55:49.885Z,54441.56
2022-11-05T16:58:22.459Z,54445.56
2022-11-05T17:00:52.686Z,54471.41
2022-11-05T17:03:21.512Z,54477.38
2022-11-05T17:05:50.099Z,54511.19
2022-11-05T17:08:18.472Z,54501.22
2022-11-05T17:10:47.196Z,54541.00
2022-11-05T17:13:17.584Z,54533.06
2022-11-05T17:15:49.431Z,54517.16
2022-11-05T17:18:19.362Z,54580.78
2022-11-05T17:20:49.652Z,54554.94
2022-11-05T17:23:19.393Z,54523.09
2022-11-05T17:25:50.111Z,54576.81
2022-11-05T17:28:19.797Z,54596.69
2022-11-05T17:30:52.916Z,54592.72
2022-11-05T17:33:23.055Z,54614.59
2022-11-05T17:35:52.679Z,54610.63
2022-11-05T17:38:21.753Z,54644.41
2022-11-05T17:40:50.821Z,54630.50
2022-11-05T17:43:20.108Z,54626.53
2022-11-05T17:45:52.006Z,54676.25
2022-11-05T17:48:21.208Z,54656.34
2022-11-05T17:50:51.521Z,54664.31
2022-11-05T17:53:21.052Z,54644.41
2022-11-05T17:55:49.877Z,54664.31
2022-11-05T17:58:18.373Z,54692.16
2022-11-05T18:00:48.008Z,54676.25
2022-11-05T18:03:17.720Z,54670.28
2022-11-05T18:05:46.760Z,54700.09
2022-11-05T18:08:15.162Z,54668.28
2022-11-05T18:10:44.083Z,54714.03
2022-11-05T18:13:12.726Z,54714.03
2022-11-05T18:15:42.081Z,54720.00
2022-11-05T18:18:11.034Z,54733.91
2022-11-05T18:20:40.773Z,54767.72
2022-11-05T18:23:09.652Z,54811.47
2022-11-05T18:25:40.899Z,54777.66
2022-11-05T18:28:09.892Z,54799.53
2022-11-05T18:30:40.003Z,54801.53
2022-11-05T18:33:08.713Z,54765.72
2022-11-05T18:35:43.324Z,54787.63
2022-11-05T18:38:11.701Z,54803.53
2022-11-05T18:40:40.717Z,54803.53
2022-11-05T18:43:09.821Z,54827.38
2022-11-05T18:45:38.843Z,54813.47
2022-11-05T18:48:07.938Z,54869.16
2022-11-05T18:50:36.555Z,54807.50
2022-11-05T18:53:06.458Z,54807.50
2022-11-05T18:55:35.086Z,54805.50
2022-11-05T18:58:03.550Z,54811.47
2022-11-05T19:00:32.199Z,54809.50
2022-11-05T19:03:00.684Z,54827.38
2022-11-05T19:05:30.206Z,54779.66
2022-11-05T19:07:59.368Z,54803.53
2022-11-05T19:10:29.495Z,54837.34
2022-11-05T19:12:58.433Z,54835.34
2022-11-05T19:15:26.984Z,54869.16
2022-11-05T19:17:55.375Z,54835.34
2022-11-05T19:20:23.690Z,54869.16
2022-11-05T19:22:52.377Z,54895.00
2022-11-05T19:25:21.167Z,54883.06
2022-11-05T19:27:51.324Z,54893.03
2022-11-05T19:30:20.045Z,54910.91
2022-11-05T19:32:48.654Z,54891.03
2022-11-05T19:35:17.099Z,54928.81
2022-11-05T19:37:45.601Z,54899.00
2022-11-05T19:40:14.220Z,54851.25
2022-11-05T19:42:43.146Z,54879.09
2022-11-05T19:48:02.080Z,54859.22
2022-11-05T19:50:32.989Z,54843.28
2022-11-05T19:53:01.778Z,54827.38
2022-11-05T19:55:30.338Z,54825.41
2022-11-05T19:57:59.201Z,54843.28
2022-11-05T20:00:29.010Z,54843.28
2022-11-05T20:02:57.634Z,54887.06
2022-11-05T20:05:26.937Z,54827.38
2022-11-05T20:07:56.351Z,54817.44
2022-11-05T20:10:24.819Z,54845.28
2022-11-05T20:12:55.257Z,54827.38
2022-11-05T20:15:23.965Z,54815.47
2022-11-05T20:17:55.112Z,54815.47
2022-11-05T20:20:23.848Z,54815.47
2022-11-05T20:22:53.499Z,54819.44
2022-11-05T20:25:22.053Z,54871.16
2022-11-05T20:27:50.899Z,54817.44
2022-11-05T20:30:20.121Z,54849.25
2022-11-05T20:32:48.671Z,54837.34
2022-11-05T20:35:18.503Z,54813.47
2022-11-05T20:37:51.224Z,54827.38
2022-11-05T20:40:22.182Z,54821.41
2022-11-05T20:42:50.541Z,54811.47
2022-11-05T20:45:19.153Z,54819.44
2022-11-05T20:47:47.618Z,54797.56
2022-11-05T20:50:16.256Z,54797.56
2022-11-05T20:52:46.117Z,54799.53
2022-11-05T20:55:14.588Z,54807.50
2022-11-05T20:57:42.991Z,54773.69
2022-11-05T21:00:13.189Z,54787.63
2022-11-05T21:02:42.106Z,54781.66
2022-11-05T21:05:10.884Z,54771.69
2022-11-05T21:07:39.365Z,54795.56
2022-11-05T21:10:09.901Z,54771.69
2022-11-05T21:12:38.434Z,54706.06
2022-11-05T21:15:08.633Z,54795.56
2022-11-05T21:17:37.618Z,54793.56
2022-11-05T21:20:07.159Z,54785.63
2022-11-05T21:22:35.626Z,54799.53
2022-11-05T21:25:04.315Z,54775.69
2022-11-05T21:27:33.984Z,54779.66
2022-11-05T21:30:02.723Z,54757.78
2022-11-05T21:32:31.184Z,54708.06
2022-11-05T21:34:59.636Z,54731.94
2022-11-05T21:37:28.230Z,54727.94
2022-11-05T21:39:56.832Z,54763.75
2022-11-05T21:42:25.386Z,54793.56
2022-11-05T21:45:00.269Z,54725.97
2022-11-05T21:47:30.542Z,54743.84
2022-11-05T21:49:59.060Z,54747.84
2022-11-05T21:52:45.336Z,54737.88
2022-11-05T21:55:32.307Z,54735.91
2022-11-05T21:58:22.984Z,54757.78
2022-11-05T22:00:52.765Z,54737.88
2022-11-05T22:03:21.214Z,54747.84
2022-11-05T22:05:49.634Z,54718.00
2022-11-05T22:08:18.013Z,54747.84
2022-11-05T22:10:46.481Z,54723.97
2022-11-05T22:13:15.278Z,54698.13
2022-11-05T22:15:43.854Z,54680.22
2022-11-05T22:18:14.105Z,54700.09
2022-11-05T22:20:42.821Z,54720.00
2022-11-05T22:23:11.545Z,54690.16
2022-11-05T22:25:40.088Z,54672.25
2022-11-05T22:28:08.466Z,54704.09
2022-11-05T22:30:36.889Z,54704.09
2022-11-05T22:33:05.883Z,54688.16
2022-11-05T22:35:35.700Z,54686.19
2022-11-05T22:38:04.677Z,54666.28
2022-11-05T22:40:33.123Z,54684.19
2022-11-05T22:43:01.637Z,54640.44
2022-11-05T22:45:30.084Z,54688.16
2022-11-05T22:47:58.520Z,54712.03
2022-11-05T22:50:26.862Z,54696.13
2022-11-05T22:52:56.676Z,54712.03
2022-11-05T22:55:25.198Z,54686.19
2022-11-05T22:57:53.795Z,54708.06
2022-11-05T23:00:22.789Z,54710.06
2022-11-05T23:02:52.738Z,54708.06
2022-11-05T23:05:21.390Z,54718.00
2022-11-05T23:08:06.976Z,54698.13
2022-11-05T23:10:56.338Z,54731.94
2022-11-05T23:13:24.815Z,54767.72
2022-11-05T23:16:10.961Z,54759.78
2022-11-05T23:18:56.593Z,54799.53
2022-11-05T23:21:42.654Z,54811.47
2022-11-05T23:24:14.242Z,54803.53
2022-11-05T23:26:52.969Z,54779.66
2022-11-05T23:29:23.119Z,54825.41
2022-11-05T23:32:09.889Z,54899.00
2022-11-05T23:34:38.469Z,54869.16
2022-11-05T23:37:24.629Z,54881.09
2022-11-05T23:39:53.223Z,54914.91
2022-11-05T23:42:40.974Z,54895.00
2022-11-05T23:45:27.688Z,54926.84
2022-11-05T23:48:14.263Z,54851.25
2022-11-05T23:50:44.047Z,54879.09
2022-11-05T23:53:12.636Z,54861.19
2022-11-05T23:55:41.170Z,54904.94
2022-11-05T23:58:11.749Z,54910.91
